sensor_id;sensor_type;location;lat;lon;timestamp;P1;durP1;ratioP1;P2;durP2;ratioP2
27402;SDS011;14862;49.494;8.530;2023-06-26T00:00:18;7.68;;;6.30;;
27402;SDS011;14862;49.494;8.530;2023-06-26T00:02:44;6.85;;;6.15;;
27402;SDS011;14862;49.494;8.530;2023-06-26T00:05:09;7.97;;;6.22;;
27402;SDS011;14862;49.494;8.530;2023-06-26T00:07:35;8.27;;;5.97;;
27402;SDS011;14862;49.494;8.530;2023-06-26T00:10:00;7.33;;;6.43;;
27402;SDS011;14862;49.494;8.530;2023-06-26T00:12:26;7.68;;;6.15;;
27402;SDS011;14862;49.494;8.530;2023-06-26T00:14:51;7.55;;;6.20;;
27402;SDS011;14862;49.494;8.530;2023-06-26T00:17:16;7.70;;;5.95;;
27402;SDS011;14862;49.494;8.530;2023-06-26T00:19:42;8.05;;;6.47;;
27402;SDS011;14862;49.494;8.530;2023-06-26T00:22:07;13.50;;;6.33;;
27402;SDS011;14862;49.494;8.530;2023-06-26T00:24:32;7.40;;;6.07;;
27402;SDS011;14862;49.494;8.530;2023-06-26T00:26:57;6.63;;;5.80;;
27402;SDS011;14862;49.494;8.530;2023-06-26T00:29:23;6.95;;;5.78;;
27402;SDS011;14862;49.494;8.530;2023-06-26T00:31:49;9.80;;;5.77;;
27402;SDS011;14862;49.494;8.530;2023-06-26T00:34:14;7.63;;;6.10;;
27402;SDS011;14862;49.494;8.530;2023-06-26T00:36:40;6.78;;;6.07;;
27402;SDS011;14862;49.494;8.530;2023-06-26T00:39:08;8.63;;;6.15;;
27402;SDS011;14862;49.494;8.530;2023-06-26T00:41:33;8.65;;;6.32;;
27402;SDS011;14862;49.494;8.530;2023-06-26T00:43:58;8.20;;;7.00;;
27402;SDS011;14862;49.494;8.530;2023-06-26T00:46:23;7.60;;;6.35;;
27402;SDS011;14862;49.494;8.530;2023-06-26T00:48:49;7.38;;;6.53;;
27402;SDS011;14862;49.494;8.530;2023-06-26T00:51:14;9.33;;;6.43;;
27402;SDS011;14862;49.494;8.530;2023-06-26T00:53:40;9.10;;;6.78;;
27402;SDS011;14862;49.494;8.530;2023-06-26T00:56:06;9.93;;;6.63;;
27402;SDS011;14862;49.494;8.530;2023-06-26T00:58:32;9.40;;;7.13;;
27402;SDS011;14862;49.494;8.530;2023-06-26T01:00:58;10.30;;;6.57;;
27402;SDS011;14862;49.494;8.530;2023-06-26T01:03:24;10.00;;;6.70;;
27402;SDS011;14862;49.494;8.530;2023-06-26T01:05:50;7.45;;;6.43;;
27402;SDS011;14862;49.494;8.530;2023-06-26T01:08:16;7.55;;;6.05;;
27402;SDS011;14862;49.494;8.530;2023-06-26T01:10:42;7.68;;;6.88;;
27402;SDS011;14862;49.494;8.530;2023-06-26T01:13:08;10.40;;;7.00;;
27402;SDS011;14862;49.494;8.530;2023-06-26T01:15:33;7.93;;;6.50;;
27402;SDS011;14862;49.494;8.530;2023-06-26T01:17:58;9.07;;;6.97;;
27402;SDS011;14862;49.494;8.530;2023-06-26T01:20:28;7.53;;;6.30;;
27402;SDS011;14862;49.494;8.530;2023-06-26T01:22:59;10.50;;;6.47;;
27402;SDS011;14862;49.494;8.530;2023-06-26T01:25:34;8.77;;;6.80;;
27402;SDS011;14862;49.494;8.530;2023-06-26T01:28:06;9.05;;;6.50;;
27402;SDS011;14862;49.494;8.530;2023-06-26T01:30:32;8.73;;;6.97;;
27402;SDS011;14862;49.494;8.530;2023-06-26T01:32:58;8.15;;;6.97;;
27402;SDS011;14862;49.494;8.530;2023-06-26T01:35:23;8.45;;;7.20;;
27402;SDS011;14862;49.494;8.530;2023-06-26T01:37:48;9.32;;;6.97;;
27402;SDS011;14862;49.494;8.530;2023-06-26T01:40:13;8.23;;;6.73;;
27402;SDS011;14862;49.494;8.530;2023-06-26T01:42:39;17.50;;;6.80;;
27402;SDS011;14862;49.494;8.530;2023-06-26T01:45:10;9.23;;;7.07;;
27402;SDS011;14862;49.494;8.530;2023-06-26T01:47:37;6.95;;;6.25;;
27402;SDS011;14862;49.494;8.530;2023-06-26T01:50:05;7.80;;;6.57;;
27402;SDS011;14862;49.494;8.530;2023-06-26T01:52:35;8.75;;;6.70;;
27402;SDS011;14862;49.494;8.530;2023-06-26T01:55:05;8.50;;;7.10;;
27402;SDS011;14862;49.494;8.530;2023-06-26T01:57:33;8.48;;;6.90;;
27402;SDS011;14862;49.494;8.530;2023-06-26T02:00:00;8.45;;;6.68;;
27402;SDS011;14862;49.494;8.530;2023-06-26T02:02:27;7.13;;;6.10;;
27402;SDS011;14862;49.494;8.530;2023-06-26T02:04:53;9.15;;;6.85;;
27402;SDS011;14862;49.494;8.530;2023-06-26T02:07:18;9.83;;;6.63;;
27402;SDS011;14862;49.494;8.530;2023-06-26T02:09:43;7.50;;;6.07;;
27402;SDS011;14862;49.494;8.530;2023-06-26T02:12:09;8.15;;;6.65;;
27402;SDS011;14862;49.494;8.530;2023-06-26T02:14:34;7.60;;;6.63;;
27402;SDS011;14862;49.494;8.530;2023-06-26T02:16:59;8.85;;;6.65;;
27402;SDS011;14862;49.494;8.530;2023-06-26T02:19:25;7.68;;;6.38;;
27402;SDS011;14862;49.494;8.530;2023-06-26T02:21:52;8.98;;;6.45;;
27402;SDS011;14862;49.494;8.530;2023-06-26T02:24:17;8.07;;;6.77;;
27402;SDS011;14862;49.494;8.530;2023-06-26T02:26:42;8.23;;;7.20;;
27402;SDS011;14862;49.494;8.530;2023-06-26T02:29:08;8.48;;;6.28;;
27402;SDS011;14862;49.494;8.530;2023-06-26T02:31:33;8.07;;;6.47;;
27402;SDS011;14862;49.494;8.530;2023-06-26T02:33:58;6.63;;;5.93;;
27402;SDS011;14862;49.494;8.530;2023-06-26T02:36:23;7.03;;;6.10;;
27402;SDS011;14862;49.494;8.530;2023-06-26T02:38:48;7.93;;;6.57;;
27402;SDS011;14862;49.494;8.530;2023-06-26T02:41:13;8.07;;;6.77;;
27402;SDS011;14862;49.494;8.530;2023-06-26T02:43:39;7.67;;;6.87;;
27402;SDS011;14862;49.494;8.530;2023-06-26T02:46:04;10.70;;;7.00;;
27402;SDS011;14862;49.494;8.530;2023-06-26T02:48:29;8.57;;;6.60;;
27402;SDS011;14862;49.494;8.530;2023-06-26T02:50:54;11.10;;;7.33;;
27402;SDS011;14862;49.494;8.530;2023-06-26T02:53:19;8.17;;;7.10;;
27402;SDS011;14862;49.494;8.530;2023-06-26T02:55:45;9.60;;;7.27;;
27402;SDS011;14862;49.494;8.530;2023-06-26T02:58:12;8.50;;;7.10;;
27402;SDS011;14862;49.494;8.530;2023-06-26T03:00:37;9.80;;;6.97;;
27402;SDS011;14862;49.494;8.530;2023-06-26T03:03:06;10.07;;;7.38;;
27402;SDS011;14862;49.494;8.530;2023-06-26T03:05:31;10.87;;;8.03;;
27402;SDS011;14862;49.494;8.530;2023-06-26T03:07:56;8.60;;;7.22;;
27402;SDS011;14862;49.494;8.530;2023-06-26T03:10:21;9.73;;;7.17;;
27402;SDS011;14862;49.494;8.530;2023-06-26T03:12:46;8.13;;;6.90;;
27402;SDS011;14862;49.494;8.530;2023-06-26T03:15:12;10.20;;;8.10;;
27402;SDS011;14862;49.494;8.530;2023-06-26T03:17:37;10.20;;;7.93;;
27402;SDS011;14862;49.494;8.530;2023-06-26T03:20:02;10.37;;;7.27;;
27402;SDS011;14862;49.494;8.530;2023-06-26T03:22:28;9.52;;;8.45;;
27402;SDS011;14862;49.494;8.530;2023-06-26T03:24:53;9.30;;;7.43;;
27402;SDS011;14862;49.494;8.530;2023-06-26T03:27:18;8.67;;;7.50;;
27402;SDS011;14862;49.494;8.530;2023-06-26T03:29:43;9.32;;;7.60;;
27402;SDS011;14862;49.494;8.530;2023-06-26T03:32:08;9.60;;;7.90;;
27402;SDS011;14862;49.494;8.530;2023-06-26T03:34:34;11.23;;;7.40;;
27402;SDS011;14862;49.494;8.530;2023-06-26T03:36:59;10.27;;;8.33;;
27402;SDS011;14862;49.494;8.530;2023-06-26T03:39:24;11.53;;;8.37;;
27402;SDS011;14862;49.494;8.530;2023-06-26T03:41:49;11.77;;;7.63;;
27402;SDS011;14862;49.494;8.530;2023-06-26T03:44:15;10.90;;;7.65;;
27402;SDS011;14862;49.494;8.530;2023-06-26T03:46:40;8.48;;;7.55;;
27402;SDS011;14862;49.494;8.530;2023-06-26T03:49:05;11.00;;;7.83;;
27402;SDS011;14862;49.494;8.530;2023-06-26T03:51:31;10.63;;;8.13;;
27402;SDS011;14862;49.494;8.530;2023-06-26T03:53:56;8.63;;;6.65;;
27402;SDS011;14862;49.494;8.530;2023-06-26T03:56:21;7.97;;;6.75;;
27402;SDS011;14862;49.494;8.530;2023-06-26T03:58:46;8.63;;;6.80;;
27402;SDS011;14862;49.494;8.530;2023-06-26T04:01:11;8.33;;;7.00;;
27402;SDS011;14862;49.494;8.530;2023-06-26T04:03:37;8.20;;;6.37;;
27402;SDS011;14862;49.494;8.530;2023-06-26T04:06:02;9.60;;;6.43;;
27402;SDS011;14862;49.494;8.530;2023-06-26T04:08:27;9.13;;;6.53;;
27402;SDS011;14862;49.494;8.530;2023-06-26T04:10:52;7.55;;;6.28;;
27402;SDS011;14862;49.494;8.530;2023-06-26T04:13:18;8.73;;;6.35;;
27402;SDS011;14862;49.494;8.530;2023-06-26T04:15:43;9.13;;;6.87;;
27402;SDS011;14862;49.494;8.530;2023-06-26T04:18:09;10.30;;;6.53;;
27402;SDS011;14862;49.494;8.530;2023-06-26T04:20:38;7.40;;;6.30;;
27402;SDS011;14862;49.494;8.530;2023-06-26T04:23:04;6.80;;;6.13;;
27402;SDS011;14862;49.494;8.530;2023-06-26T04:25:29;7.00;;;6.30;;
27402;SDS011;14862;49.494;8.530;2023-06-26T04:27:54;6.57;;;5.67;;
27402;SDS011;14862;49.494;8.530;2023-06-26T04:30:19;7.30;;;6.43;;
27402;SDS011;14862;49.494;8.530;2023-06-26T04:32:45;6.27;;;5.67;;
27402;SDS011;14862;49.494;8.530;2023-06-26T04:35:10;8.77;;;6.15;;
27402;SDS011;14862;49.494;8.530;2023-06-26T04:37:35;8.05;;;6.78;;
27402;SDS011;14862;49.494;8.530;2023-06-26T04:40:01;7.28;;;6.30;;
27402;SDS011;14862;49.494;8.530;2023-06-26T04:42:28;7.05;;;6.35;;
27402;SDS011;14862;49.494;8.530;2023-06-26T04:44:53;6.80;;;6.10;;
27402;SDS011;14862;49.494;8.530;2023-06-26T04:47:19;7.90;;;6.13;;
27402;SDS011;14862;49.494;8.530;2023-06-26T04:49:44;7.57;;;5.93;;
27402;SDS011;14862;49.494;8.530;2023-06-26T04:52:10;10.70;;;6.13;;
27402;SDS011;14862;49.494;8.530;2023-06-26T04:54:38;6.72;;;5.95;;
27402;SDS011;14862;49.494;8.530;2023-06-26T04:57:03;7.13;;;6.50;;
27402;SDS011;14862;49.494;8.530;2023-06-26T04:59:28;8.07;;;6.43;;
27402;SDS011;14862;49.494;8.530;2023-06-26T05:01:54;8.33;;;6.10;;
27402;SDS011;14862;49.494;8.530;2023-06-26T05:04:19;7.20;;;6.07;;
27402;SDS011;14862;49.494;8.530;2023-06-26T05:06:44;7.63;;;6.93;;
27402;SDS011;14862;49.494;8.530;2023-06-26T05:09:09;8.17;;;6.20;;
27402;SDS011;14862;49.494;8.530;2023-06-26T05:11:35;7.10;;;5.88;;
27402;SDS011;14862;49.494;8.530;2023-06-26T05:14:01;6.93;;;5.88;;
27402;SDS011;14862;49.494;8.530;2023-06-26T05:16:26;7.43;;;6.23;;
27402;SDS011;14862;49.494;8.530;2023-06-26T05:18:51;7.60;;;6.80;;
27402;SDS011;14862;49.494;8.530;2023-06-26T05:21:17;7.13;;;6.47;;
27402;SDS011;14862;49.494;8.530;2023-06-26T05:23:42;7.60;;;6.68;;
27402;SDS011;14862;49.494;8.530;2023-06-26T05:26:09;6.72;;;5.82;;
27402;SDS011;14862;49.494;8.530;2023-06-26T05:28:35;8.43;;;6.80;;
27402;SDS011;14862;49.494;8.530;2023-06-26T05:31:01;8.05;;;7.25;;
27402;SDS011;14862;49.494;8.530;2023-06-26T05:33:26;7.90;;;7.10;;
27402;SDS011;14862;49.494;8.530;2023-06-26T05:35:52;9.18;;;6.78;;
27402;SDS011;14862;49.494;8.530;2023-06-26T05:38:17;8.23;;;6.80;;
27402;SDS011;14862;49.494;8.530;2023-06-26T05:40:43;7.97;;;6.90;;
27402;SDS011;14862;49.494;8.530;2023-06-26T05:43:08;7.20;;;6.47;;
27402;SDS011;14862;49.494;8.530;2023-06-26T05:45:33;8.95;;;6.53;;
27402;SDS011;14862;49.494;8.530;2023-06-26T05:47:59;9.13;;;6.63;;
27402;SDS011;14862;49.494;8.530;2023-06-26T05:50:24;8.43;;;6.70;;
27402;SDS011;14862;49.494;8.530;2023-06-26T05:52:50;7.65;;;6.93;;
27402;SDS011;14862;49.494;8.530;2023-06-26T05:55:15;10.32;;;6.60;;
27402;SDS011;14862;49.494;8.530;2023-06-26T05:57:40;8.20;;;7.40;;
27402;SDS011;14862;49.494;8.530;2023-06-26T06:00:07;7.90;;;7.20;;
27402;SDS011;14862;49.494;8.530;2023-06-26T06:02:36;7.47;;;6.75;;
27402;SDS011;14862;49.494;8.530;2023-06-26T06:05:01;7.63;;;6.90;;
27402;SDS011;14862;49.494;8.530;2023-06-26T06:07:26;8.10;;;7.30;;
27402;SDS011;14862;49.494;8.530;2023-06-26T06:09:51;8.05;;;6.75;;
27402;SDS011;14862;49.494;8.530;2023-06-26T06:12:16;7.77;;;6.97;;
27402;SDS011;14862;49.494;8.530;2023-06-26T06:14:42;9.60;;;7.03;;
27402;SDS011;14862;49.494;8.530;2023-06-26T06:17:07;9.10;;;7.10;;
27402;SDS011;14862;49.494;8.530;2023-06-26T06:19:32;7.00;;;6.40;;
27402;SDS011;14862;49.494;8.530;2023-06-26T06:21:57;6.72;;;6.13;;
27402;SDS011;14862;49.494;8.530;2023-06-26T06:24:23;7.43;;;6.73;;
27402;SDS011;14862;49.494;8.530;2023-06-26T06:26:48;7.10;;;6.47;;
27402;SDS011;14862;49.494;8.530;2023-06-26T06:29:13;7.20;;;6.50;;
27402;SDS011;14862;49.494;8.530;2023-06-26T06:31:38;7.67;;;6.97;;
27402;SDS011;14862;49.494;8.530;2023-06-26T06:34:03;10.67;;;6.17;;
27402;SDS011;14862;49.494;8.530;2023-06-26T06:36:28;6.57;;;5.60;;
27402;SDS011;14862;49.494;8.530;2023-06-26T06:38:54;6.77;;;6.17;;
27402;SDS011;14862;49.494;8.530;2023-06-26T06:41:19;10.73;;;6.72;;
27402;SDS011;14862;49.494;8.530;2023-06-26T06:43:45;6.60;;;6.00;;
27402;SDS011;14862;49.494;8.530;2023-06-26T06:46:10;6.70;;;6.10;;
27402;SDS011;14862;49.494;8.530;2023-06-26T06:48:35;8.80;;;6.83;;
27402;SDS011;14862;49.494;8.530;2023-06-26T06:51:01;8.77;;;5.83;;
27402;SDS011;14862;49.494;8.530;2023-06-26T06:53:26;10.82;;;6.05;;
27402;SDS011;14862;49.494;8.530;2023-06-26T06:55:51;6.77;;;6.17;;
27402;SDS011;14862;49.494;8.530;2023-06-26T06:58:16;7.33;;;5.70;;
27402;SDS011;14862;49.494;8.530;2023-06-26T07:00:44;6.47;;;5.88;;
27402;SDS011;14862;49.494;8.530;2023-06-26T07:03:09;6.68;;;6.07;;
27402;SDS011;14862;49.494;8.530;2023-06-26T07:05:35;6.47;;;5.68;;
27402;SDS011;14862;49.494;8.530;2023-06-26T07:08:00;7.03;;;5.60;;
27402;SDS011;14862;49.494;8.530;2023-06-26T07:10:25;6.13;;;5.53;;
27402;SDS011;14862;49.494;8.530;2023-06-26T07:12:50;7.40;;;6.70;;
27402;SDS011;14862;49.494;8.530;2023-06-26T07:15:16;6.77;;;5.27;;
27402;SDS011;14862;49.494;8.530;2023-06-26T07:17:41;7.03;;;5.15;;
27402;SDS011;14862;49.494;8.530;2023-06-26T07:20:07;7.03;;;6.43;;
27402;SDS011;14862;49.494;8.530;2023-06-26T07:22:33;7.45;;;5.93;;
27402;SDS011;14862;49.494;8.530;2023-06-26T07:24:58;7.10;;;5.88;;
27402;SDS011;14862;49.494;8.530;2023-06-26T07:27:24;6.37;;;5.77;;
27402;SDS011;14862;49.494;8.530;2023-06-26T07:29:49;6.80;;;6.17;;
27402;SDS011;14862;49.494;8.530;2023-06-26T07:32:14;6.55;;;5.55;;
27402;SDS011;14862;49.494;8.530;2023-06-26T07:34:39;6.70;;;5.43;;
27402;SDS011;14862;49.494;8.530;2023-06-26T07:37:04;8.67;;;6.13;;
27402;SDS011;14862;49.494;8.530;2023-06-26T07:39:30;6.87;;;6.27;;
27402;SDS011;14862;49.494;8.530;2023-06-26T07:41:55;8.75;;;6.95;;
27402;SDS011;14862;49.494;8.530;2023-06-26T07:44:21;5.68;;;5.18;;
27402;SDS011;14862;49.494;8.530;2023-06-26T07:46:46;7.15;;;5.50;;
27402;SDS011;14862;49.494;8.530;2023-06-26T07:49:12;6.03;;;5.40;;
27402;SDS011;14862;49.494;8.530;2023-06-26T07:51:37;6.67;;;6.13;;
27402;SDS011;14862;49.494;8.530;2023-06-26T07:54:02;7.45;;;5.68;;
27402;SDS011;14862;49.494;8.530;2023-06-26T07:56:27;6.63;;;5.73;;
27402;SDS011;14862;49.494;8.530;2023-06-26T07:58:53;8.00;;;6.33;;
27402;SDS011;14862;49.494;8.530;2023-06-26T08:01:18;8.27;;;5.77;;
27402;SDS011;14862;49.494;8.530;2023-06-26T08:03:43;8.68;;;5.32;;
27402;SDS011;14862;49.494;8.530;2023-06-26T08:06:08;10.83;;;5.93;;
27402;SDS011;14862;49.494;8.530;2023-06-26T08:08:34;8.27;;;5.78;;
27402;SDS011;14862;49.494;8.530;2023-06-26T08:10:59;6.33;;;5.83;;
27402;SDS011;14862;49.494;8.530;2023-06-26T08:13:24;6.57;;;5.73;;
27402;SDS011;14862;49.494;8.530;2023-06-26T08:15:50;6.72;;;6.10;;
27402;SDS011;14862;49.494;8.530;2023-06-26T08:18:15;7.90;;;6.33;;
27402;SDS011;14862;49.494;8.530;2023-06-26T08:20:40;6.70;;;5.67;;
27402;SDS011;14862;49.494;8.530;2023-06-26T08:23:05;6.87;;;5.70;;
27402;SDS011;14862;49.494;8.530;2023-06-26T08:25:30;6.67;;;5.73;;
27402;SDS011;14862;49.494;8.530;2023-06-26T08:27:56;6.27;;;5.70;;
27402;SDS011;14862;49.494;8.530;2023-06-26T08:30:21;5.47;;;4.97;;
27402;SDS011;14862;49.494;8.530;2023-06-26T08:32:47;6.22;;;5.55;;
27402;SDS011;14862;49.494;8.530;2023-06-26T08:35:12;7.97;;;5.03;;
27402;SDS011;14862;49.494;8.530;2023-06-26T08:37:37;6.27;;;5.20;;
27402;SDS011;14862;49.494;8.530;2023-06-26T08:40:02;7.63;;;5.38;;
27402;SDS011;14862;49.494;8.530;2023-06-26T08:42:29;9.60;;;4.85;;
27402;SDS011;14862;49.494;8.530;2023-06-26T08:44:54;5.80;;;5.27;;
27402;SDS011;14862;49.494;8.530;2023-06-26T08:47:19;6.83;;;5.47;;
27402;SDS011;14862;49.494;8.530;2023-06-26T08:49:51;8.40;;;5.20;;
27402;SDS011;14862;49.494;8.530;2023-06-26T08:53:04;5.82;;;5.30;;
27402;SDS011;14862;49.494;8.530;2023-06-26T08:55:05;6.13;;;5.50;;
27402;SDS011;14862;49.494;8.530;2023-06-26T08:57:31;7.28;;;5.30;;
27402;SDS011;14862;49.494;8.530;2023-06-26T08:59:57;7.10;;;5.47;;
27402;SDS011;14862;49.494;8.530;2023-06-26T09:02:22;8.27;;;5.53;;
27402;SDS011;14862;49.494;8.530;2023-06-26T09:04:48;8.87;;;5.30;;
27402;SDS011;14862;49.494;8.530;2023-06-26T09:07:14;5.50;;;5.00;;
27402;SDS011;14862;49.494;8.530;2023-06-26T09:09:39;7.15;;;5.30;;
27402;SDS011;14862;49.494;8.530;2023-06-26T09:12:04;6.53;;;5.93;;
27402;SDS011;14862;49.494;8.530;2023-06-26T09:14:30;6.13;;;4.70;;
27402;SDS011;14862;49.494;8.530;2023-06-26T09:16:55;6.50;;;5.13;;
27402;SDS011;14862;49.494;8.530;2023-06-26T09:19:20;6.00;;;4.32;;
27402;SDS011;14862;49.494;8.530;2023-06-26T09:21:46;4.70;;;4.30;;
27402;SDS011;14862;49.494;8.530;2023-06-26T09:24:13;4.78;;;4.38;;
27402;SDS011;14862;49.494;8.530;2023-06-26T09:26:40;4.70;;;4.20;;
27402;SDS011;14862;49.494;8.530;2023-06-26T09:29:06;5.15;;;4.30;;
27402;SDS011;14862;49.494;8.530;2023-06-26T09:31:32;4.88;;;4.18;;
27402;SDS011;14862;49.494;8.530;2023-06-26T09:33:58;4.18;;;3.88;;
27402;SDS011;14862;49.494;8.530;2023-06-26T09:36:26;4.43;;;3.95;;
27402;SDS011;14862;49.494;8.530;2023-06-26T09:38:51;7.10;;;4.10;;
27402;SDS011;14862;49.494;8.530;2023-06-26T09:41:17;5.60;;;5.07;;
27402;SDS011;14862;49.494;8.530;2023-06-26T09:43:46;5.28;;;4.80;;
27402;SDS011;14862;49.494;8.530;2023-06-26T09:46:15;4.95;;;4.45;;
27402;SDS011;14862;49.494;8.530;2023-06-26T09:48:40;4.60;;;4.20;;
27402;SDS011;14862;49.494;8.530;2023-06-26T09:51:05;6.53;;;4.33;;
27402;SDS011;14862;49.494;8.530;2023-06-26T09:53:30;5.27;;;4.50;;
27402;SDS011;14862;49.494;8.530;2023-06-26T09:56:01;5.25;;;4.75;;
27402;SDS011;14862;49.494;8.530;2023-06-26T09:58:29;8.35;;;4.80;;
27402;SDS011;14862;49.494;8.530;2023-06-26T10:00:55;6.18;;;4.72;;
27402;SDS011;14862;49.494;8.530;2023-06-26T10:03:20;5.10;;;4.70;;
27402;SDS011;14862;49.494;8.530;2023-06-26T10:05:45;5.77;;;5.27;;
27402;SDS011;14862;49.494;8.530;2023-06-26T10:08:11;12.60;;;6.00;;
27402;SDS011;14862;49.494;8.530;2023-06-26T10:10:39;5.70;;;5.20;;
27402;SDS011;14862;49.494;8.530;2023-06-26T10:13:08;6.13;;;5.53;;
27402;SDS011;14862;49.494;8.530;2023-06-26T10:15:36;6.88;;;6.05;;
27402;SDS011;14862;49.494;8.530;2023-06-26T10:18:01;6.18;;;5.57;;
27402;SDS011;14862;49.494;8.530;2023-06-26T10:20:27;5.93;;;5.32;;
27402;SDS011;14862;49.494;8.530;2023-06-26T10:22:52;6.55;;;5.95;;
27402;SDS011;14862;49.494;8.530;2023-06-26T10:25:20;6.82;;;6.15;;
27402;SDS011;14862;49.494;8.530;2023-06-26T10:27:50;8.70;;;5.82;;
27402;SDS011;14862;49.494;8.530;2023-06-26T10:30:17;6.20;;;5.60;;
27402;SDS011;14862;49.494;8.530;2023-06-26T10:32:44;6.80;;;5.88;;
27402;SDS011;14862;49.494;8.530;2023-06-26T10:35:10;8.43;;;6.53;;
27402;SDS011;14862;49.494;8.530;2023-06-26T10:37:42;8.88;;;6.40;;
27402;SDS011;14862;49.494;8.530;2023-06-26T10:40:10;6.00;;;5.32;;
27402;SDS011;14862;49.494;8.530;2023-06-26T10:42:36;9.30;;;6.97;;
27402;SDS011;14862;49.494;8.530;2023-06-26T10:45:13;8.35;;;6.30;;
27402;SDS011;14862;49.494;8.530;2023-06-26T10:47:40;9.38;;;6.60;;
27402;SDS011;14862;49.494;8.530;2023-06-26T10:50:25;8.15;;;5.88;;
27402;SDS011;14862;49.494;8.530;2023-06-26T10:55:35;7.43;;;6.70;;
27402;SDS011;14862;49.494;8.530;2023-06-26T10:58:01;7.20;;;6.18;;
27402;SDS011;14862;49.494;8.530;2023-06-26T11:00:27;9.35;;;6.22;;
27402;SDS011;14862;49.494;8.530;2023-06-26T11:02:52;10.20;;;5.80;;
27402;SDS011;14862;49.494;8.530;2023-06-26T11:05:25;8.27;;;6.13;;
27402;SDS011;14862;49.494;8.530;2023-06-26T11:08:24;6.53;;;5.85;;
27402;SDS011;14862;49.494;8.530;2023-06-26T11:10:47;10.60;;;6.97;;
27402;SDS011;14862;49.494;8.530;2023-06-26T11:13:13;8.95;;;6.65;;
27402;SDS011;14862;49.494;8.530;2023-06-26T11:15:38;8.60;;;6.47;;
27402;SDS011;14862;49.494;8.530;2023-06-26T11:18:03;11.13;;;7.17;;
27402;SDS011;14862;49.494;8.530;2023-06-26T11:20:29;7.13;;;6.35;;
27402;SDS011;14862;49.494;8.530;2023-06-26T11:22:54;7.07;;;6.37;;
27402;SDS011;14862;49.494;8.530;2023-06-26T11:25:20;7.97;;;6.32;;
27402;SDS011;14862;49.494;8.530;2023-06-26T11:27:45;6.37;;;5.77;;
27402;SDS011;14862;49.494;8.530;2023-06-26T11:30:11;7.85;;;6.75;;
27402;SDS011;14862;49.494;8.530;2023-06-26T11:32:38;7.65;;;6.18;;
27402;SDS011;14862;49.494;8.530;2023-06-26T11:35:04;6.35;;;5.75;;
27402;SDS011;14862;49.494;8.530;2023-06-26T11:37:34;7.00;;;5.53;;
27402;SDS011;14862;49.494;8.530;2023-06-26T11:39:59;9.93;;;5.88;;
27402;SDS011;14862;49.494;8.530;2023-06-26T11:42:25;5.70;;;5.20;;
27402;SDS011;14862;49.494;8.530;2023-06-26T11:44:50;6.77;;;5.43;;
27402;SDS011;14862;49.494;8.530;2023-06-26T11:47:16;6.20;;;5.55;;
27402;SDS011;14862;49.494;8.530;2023-06-26T11:49:45;6.15;;;5.55;;
27402;SDS011;14862;49.494;8.530;2023-06-26T11:52:11;5.47;;;4.97;;
27402;SDS011;14862;49.494;8.530;2023-06-26T11:54:36;6.97;;;5.07;;
27402;SDS011;14862;49.494;8.530;2023-06-26T11:57:02;8.57;;;4.75;;
27402;SDS011;14862;49.494;8.530;2023-06-26T11:59:37;7.88;;;5.07;;
27402;SDS011;14862;49.494;8.530;2023-06-26T12:02:04;4.97;;;4.45;;
27402;SDS011;14862;49.494;8.530;2023-06-26T12:04:30;5.75;;;4.88;;
27402;SDS011;14862;49.494;8.530;2023-06-26T12:06:56;5.15;;;4.65;;
27402;SDS011;14862;49.494;8.530;2023-06-26T12:09:22;9.70;;;4.88;;
27402;SDS011;14862;49.494;8.530;2023-06-26T12:11:48;5.85;;;5.15;;
27402;SDS011;14862;49.494;8.530;2023-06-26T12:14:16;5.47;;;4.90;;
27402;SDS011;14862;49.494;8.530;2023-06-26T12:16:42;5.57;;;4.80;;
27402;SDS011;14862;49.494;8.530;2023-06-26T12:19:08;4.40;;;3.97;;
27402;SDS011;14862;49.494;8.530;2023-06-26T12:23:59;6.40;;;5.33;;
27402;SDS011;14862;49.494;8.530;2023-06-26T12:26:25;6.32;;;5.05;;
27402;SDS011;14862;49.494;8.530;2023-06-26T12:28:50;6.78;;;4.53;;
27402;SDS011;14862;49.494;8.530;2023-06-26T12:31:16;6.77;;;4.73;;
27402;SDS011;14862;49.494;8.530;2023-06-26T12:33:44;5.00;;;4.47;;
27402;SDS011;14862;49.494;8.530;2023-06-26T12:36:12;9.88;;;5.20;;
27402;SDS011;14862;49.494;8.530;2023-06-26T12:38:37;6.65;;;5.35;;
27402;SDS011;14862;49.494;8.530;2023-06-26T12:41:03;10.98;;;5.07;;
27402;SDS011;14862;49.494;8.530;2023-06-26T12:43:28;6.67;;;5.83;;
27402;SDS011;14862;49.494;8.530;2023-06-26T12:45:54;8.20;;;5.10;;
27402;SDS011;14862;49.494;8.530;2023-06-26T12:48:19;5.97;;;5.45;;
27402;SDS011;14862;49.494;8.530;2023-06-26T12:50:45;6.65;;;5.93;;
27402;SDS011;14862;49.494;8.530;2023-06-26T12:53:10;8.52;;;5.72;;
27402;SDS011;14862;49.494;8.530;2023-06-26T12:55:36;7.27;;;5.90;;
27402;SDS011;14862;49.494;8.530;2023-06-26T12:58:01;9.07;;;6.90;;
27402;SDS011;14862;49.494;8.530;2023-06-26T13:00:26;8.30;;;6.50;;
27402;SDS011;14862;49.494;8.530;2023-06-26T13:02:51;9.68;;;7.30;;
27402;SDS011;14862;49.494;8.530;2023-06-26T13:05:17;10.90;;;7.83;;
27402;SDS011;14862;49.494;8.530;2023-06-26T13:07:42;15.07;;;9.63;;
27402;SDS011;14862;49.494;8.530;2023-06-26T13:10:07;9.63;;;8.60;;
27402;SDS011;14862;49.494;8.530;2023-06-26T13:12:33;11.80;;;8.55;;
27402;SDS011;14862;49.494;8.530;2023-06-26T13:14:58;9.93;;;7.90;;
27402;SDS011;14862;49.494;8.530;2023-06-26T13:17:23;8.90;;;8.00;;
27402;SDS011;14862;49.494;8.530;2023-06-26T13:19:48;9.40;;;8.53;;
27402;SDS011;14862;49.494;8.530;2023-06-26T13:22:13;8.27;;;7.40;;
27402;SDS011;14862;49.494;8.530;2023-06-26T13:24:39;9.27;;;7.83;;
27402;SDS011;14862;49.494;8.530;2023-06-26T13:27:04;12.48;;;8.02;;
27402;SDS011;14862;49.494;8.530;2023-06-26T13:29:30;9.00;;;7.72;;
27402;SDS011;14862;49.494;8.530;2023-06-26T13:31:56;8.50;;;6.97;;
27402;SDS011;14862;49.494;8.530;2023-06-26T13:34:22;9.10;;;6.88;;
27402;SDS011;14862;49.494;8.530;2023-06-26T13:36:48;8.10;;;7.30;;
27402;SDS011;14862;49.494;8.530;2023-06-26T13:39:13;9.07;;;6.60;;
27402;SDS011;14862;49.494;8.530;2023-06-26T13:41:38;8.07;;;6.50;;
27402;SDS011;14862;49.494;8.530;2023-06-26T13:44:03;9.15;;;7.03;;
27402;SDS011;14862;49.494;8.530;2023-06-26T13:46:29;9.20;;;6.03;;
27402;SDS011;14862;49.494;8.530;2023-06-26T13:48:54;5.83;;;5.23;;
27402;SDS011;14862;49.494;8.530;2023-06-26T13:51:19;5.80;;;4.87;;
27402;SDS011;14862;49.494;8.530;2023-06-26T13:53:44;7.13;;;4.23;;
27402;SDS011;14862;49.494;8.530;2023-06-26T13:56:09;6.77;;;5.20;;
27402;SDS011;14862;49.494;8.530;2023-06-26T13:58:35;9.57;;;4.90;;
27402;SDS011;14862;49.494;8.530;2023-06-26T14:01:01;7.13;;;4.63;;
27402;SDS011;14862;49.494;8.530;2023-06-26T14:03:26;5.05;;;3.83;;
27402;SDS011;14862;49.494;8.530;2023-06-26T14:05:53;6.47;;;3.15;;
27402;SDS011;14862;49.494;8.530;2023-06-26T14:08:18;6.57;;;3.13;;
27402;SDS011;14862;49.494;8.530;2023-06-26T14:10:43;4.17;;;2.77;;
27402;SDS011;14862;49.494;8.530;2023-06-26T14:13:08;5.95;;;3.10;;
27402;SDS011;14862;49.494;8.530;2023-06-26T14:15:34;4.97;;;2.93;;
27402;SDS011;14862;49.494;8.530;2023-06-26T14:18:00;6.18;;;2.92;;
27402;SDS011;14862;49.494;8.530;2023-06-26T14:20:28;5.15;;;2.65;;
27402;SDS011;14862;49.494;8.530;2023-06-26T14:22:53;7.80;;;4.68;;
27402;SDS011;14862;49.494;8.530;2023-06-26T14:25:18;5.73;;;2.90;;
27402;SDS011;14862;49.494;8.530;2023-06-26T14:27:44;4.47;;;2.17;;
27402;SDS011;14862;49.494;8.530;2023-06-26T14:30:09;5.03;;;2.67;;
27402;SDS011;14862;49.494;8.530;2023-06-26T14:32:35;7.38;;;2.40;;
27402;SDS011;14862;49.494;8.530;2023-06-26T14:35:00;3.25;;;2.28;;
27402;SDS011;14862;49.494;8.530;2023-06-26T14:37:25;11.48;;;2.53;;
27402;SDS011;14862;49.494;8.530;2023-06-26T14:39:51;2.75;;;2.03;;
27402;SDS011;14862;49.494;8.530;2023-06-26T14:42:16;6.47;;;2.15;;